Amanda, Ohio
Current Conditions -  °F | °C
As of 9:53 PM on Wednesday 22 Oct 2014 (Local Time) from KLHQ Reporting Station
Overcast Overcast  
Wind Chill: 49°   Ceiling: 3300
Heat Index: 49°   Visibility: 10mi
Dew Point: 43°   Wind: 0mph
Humidity: 80%   Direction: NA
Pressure: 30.25"   Gusts: NA
Location:  39.65°N, 82.74°W
Report Text: KLHQ 230153Z AUTO 00000KT 10SM OVC033 09/06 A3025 RMK AO2 SLP246 T00940061
Loading
Personal Weather Stations






























Interactive Weather Map New forecast layout! Learn more

10-Day Weather Forecast

Advertisements
Track Severe Weather on mobile